sensor_id;sensor_type;location;lat;lon;timestamp;temperature;humidity
814;DHT22;389;48.710;9.392;2023-06-26T00:02:37;19.30;80.60
814;DHT22;389;48.710;9.392;2023-06-26T00:05:11;19.30;81.10
814;DHT22;389;48.710;9.392;2023-06-26T00:07:45;19.20;81.50
814;DHT22;389;48.710;9.392;2023-06-26T00:10:14;19.10;81.80
814;DHT22;389;48.710;9.392;2023-06-26T00:12:54;19.10;82.60
814;DHT22;389;48.710;9.392;2023-06-26T00:15:52;19.00;82.90
814;DHT22;389;48.710;9.392;2023-06-26T00:18:49;18.90;83.30
814;DHT22;389;48.710;9.392;2023-06-26T00:21:32;19.10;84.10
814;DHT22;389;48.710;9.392;2023-06-26T00:24:09;18.80;84.40
814;DHT22;389;48.710;9.392;2023-06-26T00:26:58;18.80;84.80
814;DHT22;389;48.710;9.392;2023-06-26T00:30:02;18.90;86.10
814;DHT22;389;48.710;9.392;2023-06-26T00:32:36;18.80;86.20
814;DHT22;389;48.710;9.392;2023-06-26T00:35:23;18.80;86.80
814;DHT22;389;48.710;9.392;2023-06-26T00:38:12;18.70;87.20
814;DHT22;389;48.710;9.392;2023-06-26T00:40:56;18.50;87.60
814;DHT22;389;48.710;9.392;2023-06-26T00:43:26;18.60;88.50
814;DHT22;389;48.710;9.392;2023-06-26T00:45:57;18.50;89.50
814;DHT22;389;48.710;9.392;2023-06-26T00:49:07;18.60;89.30
814;DHT22;389;48.710;9.392;2023-06-26T00:51:45;18.40;89.60
814;DHT22;389;48.710;9.392;2023-06-26T00:54:17;18.40;90.10
814;DHT22;389;48.710;9.392;2023-06-26T00:57:00;18.30;90.30
814;DHT22;389;48.710;9.392;2023-06-26T00:59:42;18.20;90.40
814;DHT22;389;48.710;9.392;2023-06-26T01:02:14;18.20;90.60
814;DHT22;389;48.710;9.392;2023-06-26T01:04:43;18.20;90.90
814;DHT22;389;48.710;9.392;2023-06-26T01:07:15;18.10;91.10
814;DHT22;389;48.710;9.392;2023-06-26T01:09:44;18.10;91.40
814;DHT22;389;48.710;9.392;2023-06-26T01:12:17;18.10;91.50
814;DHT22;389;48.710;9.392;2023-06-26T01:14:44;18.00;91.70
814;DHT22;389;48.710;9.392;2023-06-26T01:17:13;17.90;91.80
814;DHT22;389;48.710;9.392;2023-06-26T01:19:41;18.00;92.00
814;DHT22;389;48.710;9.392;2023-06-26T01:22:25;17.90;92.00
814;DHT22;389;48.710;9.392;2023-06-26T01:28:07;17.80;92.20
814;DHT22;389;48.710;9.392;2023-06-26T01:30:38;17.80;92.30
814;DHT22;389;48.710;9.392;2023-06-26T01:33:09;17.70;92.40
814;DHT22;389;48.710;9.392;2023-06-26T01:35:35;17.80;92.50
814;DHT22;389;48.710;9.392;2023-06-26T01:38:17;17.60;92.60
814;DHT22;389;48.710;9.392;2023-06-26T01:40:43;17.60;92.70
814;DHT22;389;48.710;9.392;2023-06-26T01:43:18;17.50;92.80
814;DHT22;389;48.710;9.392;2023-06-26T01:45:51;17.60;93.10
814;DHT22;389;48.710;9.392;2023-06-26T01:48:24;17.50;93.20
814;DHT22;389;48.710;9.392;2023-06-26T01:50:53;17.50;93.30
814;DHT22;389;48.710;9.392;2023-06-26T01:53:25;17.50;93.40
814;DHT22;389;48.710;9.392;2023-06-26T01:56:02;17.40;93.50
814;DHT22;389;48.710;9.392;2023-06-26T01:58:32;17.50;93.70
814;DHT22;389;48.710;9.392;2023-06-26T02:01:02;17.40;93.70
814;DHT22;389;48.710;9.392;2023-06-26T02:03:28;17.30;93.80
814;DHT22;389;48.710;9.392;2023-06-26T02:06:00;17.30;94.10
814;DHT22;389;48.710;9.392;2023-06-26T02:08:26;17.10;94.20
814;DHT22;389;48.710;9.392;2023-06-26T02:10:52;17.20;94.40
814;DHT22;389;48.710;9.392;2023-06-26T02:13:19;17.30;94.60
814;DHT22;389;48.710;9.392;2023-06-26T02:15:48;17.20;94.70
814;DHT22;389;48.710;9.392;2023-06-26T02:18:14;17.10;94.70
814;DHT22;389;48.710;9.392;2023-06-26T02:20:40;17.20;94.90
814;DHT22;389;48.710;9.392;2023-06-26T02:23:12;17.10;95.00
814;DHT22;389;48.710;9.392;2023-06-26T02:25:38;17.00;95.00
814;DHT22;389;48.710;9.392;2023-06-26T02:28:04;17.10;95.10
814;DHT22;389;48.710;9.392;2023-06-26T02:30:30;17.00;95.10
814;DHT22;389;48.710;9.392;2023-06-26T02:32:56;17.00;95.20
814;DHT22;389;48.710;9.392;2023-06-26T02:35:22;16.90;95.30
814;DHT22;389;48.710;9.392;2023-06-26T02:37:51;16.80;95.30
814;DHT22;389;48.710;9.392;2023-06-26T02:40:16;16.80;95.30
814;DHT22;389;48.710;9.392;2023-06-26T02:42:42;16.80;95.80
814;DHT22;389;48.710;9.392;2023-06-26T02:45:12;16.70;95.50
814;DHT22;389;48.710;9.392;2023-06-26T02:47:43;16.70;95.60
814;DHT22;389;48.710;9.392;2023-06-26T02:50:16;16.60;95.70
814;DHT22;389;48.710;9.392;2023-06-26T02:52:42;16.60;95.80
814;DHT22;389;48.710;9.392;2023-06-26T02:55:08;16.60;96.20
814;DHT22;389;48.710;9.392;2023-06-26T02:57:34;16.60;96.00
814;DHT22;389;48.710;9.392;2023-06-26T03:00:00;16.60;96.00
814;DHT22;389;48.710;9.392;2023-06-26T03:02:28;16.50;96.10
814;DHT22;389;48.710;9.392;2023-06-26T03:04:54;16.50;96.10
814;DHT22;389;48.710;9.392;2023-06-26T03:07:23;16.50;96.10
814;DHT22;389;48.710;9.392;2023-06-26T03:09:52;16.50;96.20
814;DHT22;389;48.710;9.392;2023-06-26T03:12:18;16.50;96.20
814;DHT22;389;48.710;9.392;2023-06-26T03:14:44;16.50;96.30
814;DHT22;389;48.710;9.392;2023-06-26T03:17:14;16.40;96.20
814;DHT22;389;48.710;9.392;2023-06-26T03:19:39;16.40;96.30
814;DHT22;389;48.710;9.392;2023-06-26T03:22:05;16.40;96.30
814;DHT22;389;48.710;9.392;2023-06-26T03:24:31;16.40;96.70
814;DHT22;389;48.710;9.392;2023-06-26T03:26:56;16.40;96.50
814;DHT22;389;48.710;9.392;2023-06-26T03:29:22;16.40;96.60
814;DHT22;389;48.710;9.392;2023-06-26T03:31:48;16.40;96.60
814;DHT22;389;48.710;9.392;2023-06-26T03:34:13;16.40;96.60
814;DHT22;389;48.710;9.392;2023-06-26T03:36:39;16.40;96.70
814;DHT22;389;48.710;9.392;2023-06-26T03:39:04;16.40;96.70
814;DHT22;389;48.710;9.392;2023-06-26T03:41:30;16.40;96.60
814;DHT22;389;48.710;9.392;2023-06-26T03:43:56;16.40;96.60
814;DHT22;389;48.710;9.392;2023-06-26T03:46:22;16.50;96.60
814;DHT22;389;48.710;9.392;2023-06-26T03:48:48;16.50;96.60
814;DHT22;389;48.710;9.392;2023-06-26T03:51:14;16.50;96.70
814;DHT22;389;48.710;9.392;2023-06-26T03:53:40;16.50;96.70
814;DHT22;389;48.710;9.392;2023-06-26T03:56:06;16.50;96.70
814;DHT22;389;48.710;9.392;2023-06-26T03:58:32;16.40;96.60
814;DHT22;389;48.710;9.392;2023-06-26T04:01:00;16.60;96.80
814;DHT22;389;48.710;9.392;2023-06-26T04:03:26;16.40;96.70
814;DHT22;389;48.710;9.392;2023-06-26T04:05:54;16.60;96.80
814;DHT22;389;48.710;9.392;2023-06-26T04:08:20;16.60;96.80
814;DHT22;389;48.710;9.392;2023-06-26T04:10:46;16.70;96.80
814;DHT22;389;48.710;9.392;2023-06-26T04:13:13;16.70;96.80
814;DHT22;389;48.710;9.392;2023-06-26T04:15:39;16.70;96.80
814;DHT22;389;48.710;9.392;2023-06-26T04:18:05;16.80;96.80
814;DHT22;389;48.710;9.392;2023-06-26T04:20:30;16.80;96.70
814;DHT22;389;48.710;9.392;2023-06-26T04:22:56;16.90;96.70
814;DHT22;389;48.710;9.392;2023-06-26T04:25:22;17.00;96.70
814;DHT22;389;48.710;9.392;2023-06-26T04:27:47;17.00;96.50
814;DHT22;389;48.710;9.392;2023-06-26T04:30:13;17.10;96.50
814;DHT22;389;48.710;9.392;2023-06-26T04:32:39;17.20;96.40
814;DHT22;389;48.710;9.392;2023-06-26T04:35:05;17.30;96.40
814;DHT22;389;48.710;9.392;2023-06-26T04:37:30;17.40;96.40
814;DHT22;389;48.710;9.392;2023-06-26T04:39:56;17.50;96.30
814;DHT22;389;48.710;9.392;2023-06-26T04:42:21;17.60;96.40
814;DHT22;389;48.710;9.392;2023-06-26T04:44:47;17.80;96.50
814;DHT22;389;48.710;9.392;2023-06-26T04:47:14;18.10;96.60
814;DHT22;389;48.710;9.392;2023-06-26T04:49:40;18.50;96.50
814;DHT22;389;48.710;9.392;2023-06-26T04:52:11;19.20;95.90
814;DHT22;389;48.710;9.392;2023-06-26T04:54:39;19.90;94.20
814;DHT22;389;48.710;9.392;2023-06-26T04:57:04;20.70;93.60
814;DHT22;389;48.710;9.392;2023-06-26T04:59:31;21.40;91.80
814;DHT22;389;48.710;9.392;2023-06-26T05:01:56;22.20;91.10
814;DHT22;389;48.710;9.392;2023-06-26T05:04:22;22.80;89.60
814;DHT22;389;48.710;9.392;2023-06-26T05:06:48;23.50;87.50
814;DHT22;389;48.710;9.392;2023-06-26T05:09:14;24.10;85.20
814;DHT22;389;48.710;9.392;2023-06-26T05:11:39;24.70;83.30
814;DHT22;389;48.710;9.392;2023-06-26T05:14:05;25.30;81.40
814;DHT22;389;48.710;9.392;2023-06-26T05:16:33;25.90;78.60
814;DHT22;389;48.710;9.392;2023-06-26T05:18:59;26.20;75.50
814;DHT22;389;48.710;9.392;2023-06-26T05:21:25;26.70;74.80
814;DHT22;389;48.710;9.392;2023-06-26T05:23:52;27.10;73.10
814;DHT22;389;48.710;9.392;2023-06-26T05:26:21;27.40;71.60
814;DHT22;389;48.710;9.392;2023-06-26T05:28:47;27.80;70.00
814;DHT22;389;48.710;9.392;2023-06-26T05:31:15;28.20;68.60
814;DHT22;389;48.710;9.392;2023-06-26T05:33:43;28.30;66.50
814;DHT22;389;48.710;9.392;2023-06-26T05:36:12;28.30;65.50
814;DHT22;389;48.710;9.392;2023-06-26T05:38:38;28.40;65.40
814;DHT22;389;48.710;9.392;2023-06-26T05:41:04;28.50;64.30
814;DHT22;389;48.710;9.392;2023-06-26T05:43:30;28.50;64.20
814;DHT22;389;48.710;9.392;2023-06-26T05:45:56;28.50;64.10
814;DHT22;389;48.710;9.392;2023-06-26T05:48:23;28.60;63.80
814;DHT22;389;48.710;9.392;2023-06-26T05:50:49;28.80;63.80
814;DHT22;389;48.710;9.392;2023-06-26T05:53:16;29.00;62.80
814;DHT22;389;48.710;9.392;2023-06-26T05:55:42;29.10;62.50
814;DHT22;389;48.710;9.392;2023-06-26T05:58:10;29.30;62.10
814;DHT22;389;48.710;9.392;2023-06-26T06:00:36;29.50;61.40
814;DHT22;389;48.710;9.392;2023-06-26T06:03:02;29.70;60.40
814;DHT22;389;48.710;9.392;2023-06-26T06:05:27;30.00;60.10
814;DHT22;389;48.710;9.392;2023-06-26T06:07:53;30.10;59.90
814;DHT22;389;48.710;9.392;2023-06-26T06:10:19;30.30;59.40
814;DHT22;389;48.710;9.392;2023-06-26T06:12:44;30.40;59.10
814;DHT22;389;48.710;9.392;2023-06-26T06:15:10;30.20;58.70
814;DHT22;389;48.710;9.392;2023-06-26T06:17:35;30.10;59.20
814;DHT22;389;48.710;9.392;2023-06-26T06:20:01;30.00;59.00
814;DHT22;389;48.710;9.392;2023-06-26T06:22:26;29.90;59.20
814;DHT22;389;48.710;9.392;2023-06-26T06:24:52;29.90;59.30
814;DHT22;389;48.710;9.392;2023-06-26T06:27:17;30.00;59.10
814;DHT22;389;48.710;9.392;2023-06-26T06:29:43;30.00;59.40
814;DHT22;389;48.710;9.392;2023-06-26T06:32:09;30.20;59.20
814;DHT22;389;48.710;9.392;2023-06-26T06:34:34;30.50;58.60
814;DHT22;389;48.710;9.392;2023-06-26T06:37:00;30.80;58.30
814;DHT22;389;48.710;9.392;2023-06-26T06:39:26;30.90;57.70
814;DHT22;389;48.710;9.392;2023-06-26T06:41:51;31.00;57.60
814;DHT22;389;48.710;9.392;2023-06-26T06:44:17;30.90;57.60
814;DHT22;389;48.710;9.392;2023-06-26T06:46:42;31.10;57.40
814;DHT22;389;48.710;9.392;2023-06-26T06:49:08;31.10;56.80
814;DHT22;389;48.710;9.392;2023-06-26T06:51:34;31.30;56.80
814;DHT22;389;48.710;9.392;2023-06-26T06:53:59;31.30;57.00
814;DHT22;389;48.710;9.392;2023-06-26T06:56:25;31.30;56.70
814;DHT22;389;48.710;9.392;2023-06-26T06:58:51;31.20;56.70
814;DHT22;389;48.710;9.392;2023-06-26T07:01:16;31.30;56.90
814;DHT22;389;48.710;9.392;2023-06-26T07:03:42;31.40;56.60
814;DHT22;389;48.710;9.392;2023-06-26T07:06:07;31.70;56.30
814;DHT22;389;48.710;9.392;2023-06-26T07:08:33;31.80;56.20
814;DHT22;389;48.710;9.392;2023-06-26T07:10:59;31.90;55.70
814;DHT22;389;48.710;9.392;2023-06-26T07:13:25;32.20;55.70
814;DHT22;389;48.710;9.392;2023-06-26T07:15:51;32.30;54.90
814;DHT22;389;48.710;9.392;2023-06-26T07:18:17;32.30;54.90
814;DHT22;389;48.710;9.392;2023-06-26T07:20:43;32.10;54.40
814;DHT22;389;48.710;9.392;2023-06-26T07:23:09;31.90;54.90
814;DHT22;389;48.710;9.392;2023-06-26T07:25:35;31.70;54.90
814;DHT22;389;48.710;9.392;2023-06-26T07:28:01;31.50;55.30
814;DHT22;389;48.710;9.392;2023-06-26T07:30:26;31.20;55.70
814;DHT22;389;48.710;9.392;2023-06-26T07:32:52;31.00;56.00
814;DHT22;389;48.710;9.392;2023-06-26T07:35:18;30.80;56.10
814;DHT22;389;48.710;9.392;2023-06-26T07:37:43;30.60;56.70
814;DHT22;389;48.710;9.392;2023-06-26T07:40:10;30.40;57.10
814;DHT22;389;48.710;9.392;2023-06-26T07:42:35;30.20;57.30
814;DHT22;389;48.710;9.392;2023-06-26T07:45:01;30.10;57.10
814;DHT22;389;48.710;9.392;2023-06-26T07:47:27;29.90;57.70
814;DHT22;389;48.710;9.392;2023-06-26T07:49:52;29.70;57.90
814;DHT22;389;48.710;9.392;2023-06-26T07:52:19;29.70;57.80
814;DHT22;389;48.710;9.392;2023-06-26T07:54:44;29.70;58.30
814;DHT22;389;48.710;9.392;2023-06-26T07:57:10;29.70;58.20
814;DHT22;389;48.710;9.392;2023-06-26T07:59:37;29.70;58.30
814;DHT22;389;48.710;9.392;2023-06-26T08:02:03;29.80;58.60
814;DHT22;389;48.710;9.392;2023-06-26T08:04:29;29.90;58.90
814;DHT22;389;48.710;9.392;2023-06-26T08:06:58;30.00;58.50
814;DHT22;389;48.710;9.392;2023-06-26T08:09:26;30.10;58.30
814;DHT22;389;48.710;9.392;2023-06-26T08:11:52;30.20;57.90
814;DHT22;389;48.710;9.392;2023-06-26T08:14:19;30.30;57.80
814;DHT22;389;48.710;9.392;2023-06-26T08:16:45;30.30;57.20
814;DHT22;389;48.710;9.392;2023-06-26T08:19:12;30.20;57.60
814;DHT22;389;48.710;9.392;2023-06-26T08:21:39;30.30;57.80
814;DHT22;389;48.710;9.392;2023-06-26T08:24:04;30.30;57.50
814;DHT22;389;48.710;9.392;2023-06-26T08:26:30;30.40;57.70
814;DHT22;389;48.710;9.392;2023-06-26T08:28:55;30.40;57.50
814;DHT22;389;48.710;9.392;2023-06-26T08:31:21;30.40;57.80
814;DHT22;389;48.710;9.392;2023-06-26T08:33:47;30.50;57.70
814;DHT22;389;48.710;9.392;2023-06-26T08:36:13;30.50;57.10
814;DHT22;389;48.710;9.392;2023-06-26T08:38:38;30.50;57.20
814;DHT22;389;48.710;9.392;2023-06-26T08:41:06;30.60;56.70
814;DHT22;389;48.710;9.392;2023-06-26T08:43:31;30.60;56.70
814;DHT22;389;48.710;9.392;2023-06-26T08:45:57;30.60;56.70
814;DHT22;389;48.710;9.392;2023-06-26T08:48:24;30.60;56.90
814;DHT22;389;48.710;9.392;2023-06-26T08:50:52;30.70;56.70
814;DHT22;389;48.710;9.392;2023-06-26T08:55:57;30.90;56.20
814;DHT22;389;48.710;9.392;2023-06-26T08:58:23;31.10;56.40
814;DHT22;389;48.710;9.392;2023-06-26T09:00:50;31.20;55.90
814;DHT22;389;48.710;9.392;2023-06-26T09:03:17;31.20;55.10
814;DHT22;389;48.710;9.392;2023-06-26T09:05:42;31.30;55.00
814;DHT22;389;48.710;9.392;2023-06-26T09:08:08;31.30;54.70
814;DHT22;389;48.710;9.392;2023-06-26T09:10:34;31.40;54.30
814;DHT22;389;48.710;9.392;2023-06-26T09:12:59;31.50;54.00
814;DHT22;389;48.710;9.392;2023-06-26T09:15:45;31.60;54.00
814;DHT22;389;48.710;9.392;2023-06-26T09:18:17;31.80;53.90
814;DHT22;389;48.710;9.392;2023-06-26T09:20:43;31.90;53.50
814;DHT22;389;48.710;9.392;2023-06-26T09:23:09;32.10;53.30
814;DHT22;389;48.710;9.392;2023-06-26T09:25:38;32.20;53.00
814;DHT22;389;48.710;9.392;2023-06-26T09:28:05;32.40;52.90
814;DHT22;389;48.710;9.392;2023-06-26T09:30:32;32.50;52.50
814;DHT22;389;48.710;9.392;2023-06-26T09:33:16;32.70;52.80
814;DHT22;389;48.710;9.392;2023-06-26T09:35:45;32.80;52.00
814;DHT22;389;48.710;9.392;2023-06-26T09:38:12;32.90;50.60
814;DHT22;389;48.710;9.392;2023-06-26T09:40:38;32.90;50.20
814;DHT22;389;48.710;9.392;2023-06-26T09:43:09;32.90;49.90
814;DHT22;389;48.710;9.392;2023-06-26T09:45:35;32.90;49.90
814;DHT22;389;48.710;9.392;2023-06-26T09:48:04;33.00;50.00
814;DHT22;389;48.710;9.392;2023-06-26T09:50:32;33.20;50.50
814;DHT22;389;48.710;9.392;2023-06-26T09:53:07;33.30;49.80
814;DHT22;389;48.710;9.392;2023-06-26T09:55:37;33.30;49.60
814;DHT22;389;48.710;9.392;2023-06-26T09:58:03;33.40;49.60
814;DHT22;389;48.710;9.392;2023-06-26T10:00:31;33.40;49.20
814;DHT22;389;48.710;9.392;2023-06-26T10:02:58;33.50;48.90
814;DHT22;389;48.710;9.392;2023-06-26T10:05:26;33.60;48.80
814;DHT22;389;48.710;9.392;2023-06-26T10:07:53;33.70;49.10
814;DHT22;389;48.710;9.392;2023-06-26T10:10:21;33.70;48.90
814;DHT22;389;48.710;9.392;2023-06-26T10:12:49;33.70;48.40
814;DHT22;389;48.710;9.392;2023-06-26T10:15:17;33.80;48.10
814;DHT22;389;48.710;9.392;2023-06-26T10:17:43;33.90;48.40
814;DHT22;389;48.710;9.392;2023-06-26T10:20:13;33.90;48.80
814;DHT22;389;48.710;9.392;2023-06-26T10:22:47;34.00;48.40
814;DHT22;389;48.710;9.392;2023-06-26T10:25:19;34.00;48.30
814;DHT22;389;48.710;9.392;2023-06-26T10:27:49;34.00;48.40
814;DHT22;389;48.710;9.392;2023-06-26T10:30:19;34.00;48.40
814;DHT22;389;48.710;9.392;2023-06-26T10:32:46;34.10;48.40
814;DHT22;389;48.710;9.392;2023-06-26T10:35:12;34.20;48.50
814;DHT22;389;48.710;9.392;2023-06-26T10:37:42;34.10;48.20
814;DHT22;389;48.710;9.392;2023-06-26T10:40:09;33.90;48.30
814;DHT22;389;48.710;9.392;2023-06-26T10:42:36;33.70;48.60
814;DHT22;389;48.710;9.392;2023-06-26T10:45:15;33.60;49.10
814;DHT22;389;48.710;9.392;2023-06-26T10:47:42;33.40;49.30
814;DHT22;389;48.710;9.392;2023-06-26T10:50:23;33.30;49.40
814;DHT22;389;48.710;9.392;2023-06-26T11:04:05;33.30;50.20
814;DHT22;389;48.710;9.392;2023-06-26T11:06:33;33.40;50.90
814;DHT22;389;48.710;9.392;2023-06-26T11:09:23;33.40;51.10
814;DHT22;389;48.710;9.392;2023-06-26T11:14:23;33.20;51.60
814;DHT22;389;48.710;9.392;2023-06-26T11:16:50;33.20;51.70
814;DHT22;389;48.710;9.392;2023-06-26T11:19:20;33.00;51.80
814;DHT22;389;48.710;9.392;2023-06-26T11:21:46;32.90;51.90
814;DHT22;389;48.710;9.392;2023-06-26T11:24:12;32.90;52.20
814;DHT22;389;48.710;9.392;2023-06-26T11:26:43;32.90;51.80
814;DHT22;389;48.710;9.392;2023-06-26T11:29:10;32.80;51.40
814;DHT22;389;48.710;9.392;2023-06-26T11:31:37;32.70;51.20
814;DHT22;389;48.710;9.392;2023-06-26T11:34:12;32.70;51.60
814;DHT22;389;48.710;9.392;2023-06-26T11:36:39;32.60;51.10
814;DHT22;389;48.710;9.392;2023-06-26T11:39:07;32.70;51.40
814;DHT22;389;48.710;9.392;2023-06-26T11:41:35;32.80;51.30
814;DHT22;389;48.710;9.392;2023-06-26T11:44:02;33.00;50.80
814;DHT22;389;48.710;9.392;2023-06-26T11:46:28;33.20;50.50
814;DHT22;389;48.710;9.392;2023-06-26T11:48:54;33.40;50.10
814;DHT22;389;48.710;9.392;2023-06-26T11:51:20;33.70;50.10
814;DHT22;389;48.710;9.392;2023-06-26T11:53:46;33.90;49.80
814;DHT22;389;48.710;9.392;2023-06-26T11:56:14;34.10;49.60
814;DHT22;389;48.710;9.392;2023-06-26T11:59:02;34.30;49.20
814;DHT22;389;48.710;9.392;2023-06-26T12:01:32;34.40;49.00
814;DHT22;389;48.710;9.392;2023-06-26T12:04:03;34.40;49.10
814;DHT22;389;48.710;9.392;2023-06-26T12:06:34;34.50;49.00
814;DHT22;389;48.710;9.392;2023-06-26T12:09:02;34.50;48.80
814;DHT22;389;48.710;9.392;2023-06-26T12:11:31;34.40;49.00
814;DHT22;389;48.710;9.392;2023-06-26T12:13:57;34.40;48.90
814;DHT22;389;48.710;9.392;2023-06-26T12:16:23;34.60;49.30
814;DHT22;389;48.710;9.392;2023-06-26T12:18:49;34.60;49.40
814;DHT22;389;48.710;9.392;2023-06-26T12:24:23;34.50;49.50
814;DHT22;389;48.710;9.392;2023-06-26T12:26:52;34.10;50.00
814;DHT22;389;48.710;9.392;2023-06-26T12:29:20;33.80;50.30
814;DHT22;389;48.710;9.392;2023-06-26T12:31:51;33.50;50.40
814;DHT22;389;48.710;9.392;2023-06-26T12:34:19;33.40;51.50
814;DHT22;389;48.710;9.392;2023-06-26T12:36:50;33.20;53.10
814;DHT22;389;48.710;9.392;2023-06-26T12:39:17;33.00;53.80
814;DHT22;389;48.710;9.392;2023-06-26T12:41:53;32.80;54.20
814;DHT22;389;48.710;9.392;2023-06-26T12:44:30;32.80;54.20
814;DHT22;389;48.710;9.392;2023-06-26T12:47:00;32.70;54.80
814;DHT22;389;48.710;9.392;2023-06-26T12:49:40;32.60;55.20
814;DHT22;389;48.710;9.392;2023-06-26T12:52:09;32.60;54.40
814;DHT22;389;48.710;9.392;2023-06-26T12:54:35;32.60;54.90
814;DHT22;389;48.710;9.392;2023-06-26T12:57:01;32.50;55.00
814;DHT22;389;48.710;9.392;2023-06-26T12:59:29;32.50;55.40
814;DHT22;389;48.710;9.392;2023-06-26T13:01:55;32.50;55.40
814;DHT22;389;48.710;9.392;2023-06-26T13:04:23;32.60;54.70
814;DHT22;389;48.710;9.392;2023-06-26T13:06:50;32.60;54.20
814;DHT22;389;48.710;9.392;2023-06-26T13:09:16;32.70;54.50
814;DHT22;389;48.710;9.392;2023-06-26T13:11:42;32.90;54.40
814;DHT22;389;48.710;9.392;2023-06-26T13:14:07;32.90;54.60
814;DHT22;389;48.710;9.392;2023-06-26T13:16:33;32.80;54.50
814;DHT22;389;48.710;9.392;2023-06-26T13:18:59;32.80;54.60
814;DHT22;389;48.710;9.392;2023-06-26T13:21:26;32.70;54.60
814;DHT22;389;48.710;9.392;2023-06-26T13:23:52;32.70;55.20
814;DHT22;389;48.710;9.392;2023-06-26T13:26:18;32.70;55.10
814;DHT22;389;48.710;9.392;2023-06-26T13:28:44;32.90;54.60
814;DHT22;389;48.710;9.392;2023-06-26T13:31:10;33.00;53.50
814;DHT22;389;48.710;9.392;2023-06-26T13:33:36;33.10;53.80
814;DHT22;389;48.710;9.392;2023-06-26T13:36:01;33.20;53.80
814;DHT22;389;48.710;9.392;2023-06-26T13:38:32;33.20;53.90
814;DHT22;389;48.710;9.392;2023-06-26T13:40:59;33.20;53.80
814;DHT22;389;48.710;9.392;2023-06-26T13:43:31;33.20;53.60
814;DHT22;389;48.710;9.392;2023-06-26T13:46:09;33.10;53.60
814;DHT22;389;48.710;9.392;2023-06-26T13:48:35;33.20;54.00
814;DHT22;389;48.710;9.392;2023-06-26T13:51:00;33.30;53.50
814;DHT22;389;48.710;9.392;2023-06-26T13:53:26;33.50;53.10
814;DHT22;389;48.710;9.392;2023-06-26T13:55:51;33.60;53.20
814;DHT22;389;48.710;9.392;2023-06-26T13:58:17;33.70;52.70
814;DHT22;389;48.710;9.392;2023-06-26T14:00:47;33.70;51.80
814;DHT22;389;48.710;9.392;2023-06-26T14:03:12;33.70;52.40
814;DHT22;389;48.710;9.392;2023-06-26T14:05:38;33.60;51.90
814;DHT22;389;48.710;9.392;2023-06-26T14:08:07;33.40;51.90
814;DHT22;389;48.710;9.392;2023-06-26T14:10:33;33.30;51.70
814;DHT22;389;48.710;9.392;2023-06-26T14:13:02;33.20;51.70
814;DHT22;389;48.710;9.392;2023-06-26T14:15:28;33.10;52.00
814;DHT22;389;48.710;9.392;2023-06-26T14:17:54;33.00;51.80
814;DHT22;389;48.710;9.392;2023-06-26T14:20:21;33.10;52.00
814;DHT22;389;48.710;9.392;2023-06-26T14:22:48;33.00;51.70
814;DHT22;389;48.710;9.392;2023-06-26T14:25:16;33.00;51.20
814;DHT22;389;48.710;9.392;2023-06-26T14:27:42;33.00;51.20
814;DHT22;389;48.710;9.392;2023-06-26T14:30:09;33.00;50.80
814;DHT22;389;48.710;9.392;2023-06-26T14:32:35;33.10;49.40
814;DHT22;389;48.710;9.392;2023-06-26T14:35:02;33.10;49.60
814;DHT22;389;48.710;9.392;2023-06-26T14:37:29;33.10;49.40
814;DHT22;389;48.710;9.392;2023-06-26T14:39:56;33.10;48.80
814;DHT22;389;48.710;9.392;2023-06-26T14:42:22;33.00;48.70
814;DHT22;389;48.710;9.392;2023-06-26T14:44:53;32.90;48.80
814;DHT22;389;48.710;9.392;2023-06-26T14:47:19;32.90;48.50
814;DHT22;389;48.710;9.392;2023-06-26T14:49:44;32.80;48.20
814;DHT22;389;48.710;9.392;2023-06-26T14:52:10;32.60;48.50
814;DHT22;389;48.710;9.392;2023-06-26T14:54:36;32.60;49.20
814;DHT22;389;48.710;9.392;2023-06-26T14:57:05;32.70;48.50
814;DHT22;389;48.710;9.392;2023-06-26T14:59:31;32.70;47.70
814;DHT22;389;48.710;9.392;2023-06-26T15:01:56;32.60;47.20
814;DHT22;389;48.710;9.392;2023-06-26T15:04:22;32.60;47.70
814;DHT22;389;48.710;9.392;2023-06-26T15:06:47;32.60;47.70
814;DHT22;389;48.710;9.392;2023-06-26T15:09:13;32.60;48.10
814;DHT22;389;48.710;9.392;2023-06-26T15:11:39;32.60;48.50
814;DHT22;389;48.710;9.392;2023-06-26T15:14:04;32.70;48.20
814;DHT22;389;48.710;9.392;2023-06-26T15:16:30;32.80;47.80
814;DHT22;389;48.710;9.392;2023-06-26T15:18:59;32.80;48.00
814;DHT22;389;48.710;9.392;2023-06-26T15:21:24;32.80;48.30
814;DHT22;389;48.710;9.392;2023-06-26T15:23:50;32.90;48.10
814;DHT22;389;48.710;9.392;2023-06-26T15:26:16;32.80;48.10
814;DHT22;389;48.710;9.392;2023-06-26T15:28:42;32.80;48.10
814;DHT22;389;48.710;9.392;2023-06-26T15:31:07;32.80;47.90
814;DHT22;389;48.710;9.392;2023-06-26T15:33:33;32.80;47.70
814;DHT22;389;48.710;9.392;2023-06-26T15:35:58;32.70;48.10
814;DHT22;389;48.710;9.392;2023-06-26T15:38:24;32.60;48.30
814;DHT22;389;48.710;9.392;2023-06-26T15:40:49;32.50;48.60
814;DHT22;389;48.710;9.392;2023-06-26T15:43:15;32.50;48.60
814;DHT22;389;48.710;9.392;2023-06-26T15:45:41;32.50;48.50
814;DHT22;389;48.710;9.392;2023-06-26T15:48:06;32.50;48.60
814;DHT22;389;48.710;9.392;2023-06-26T15:50:32;32.40;49.00
814;DHT22;389;48.710;9.392;2023-06-26T15:52:57;32.20;48.50
814;DHT22;389;48.710;9.392;2023-06-26T15:55:23;32.10;48.70
814;DHT22;389;48.710;9.392;2023-06-26T15:57:49;31.90;49.00
814;DHT22;389;48.710;9.392;2023-06-26T16:00:15;31.90;49.10
814;DHT22;389;48.710;9.392;2023-06-26T16:02:42;31.90;49.20
814;DHT22;389;48.710;9.392;2023-06-26T16:05:07;31.80;49.10
814;DHT22;389;48.710;9.392;2023-06-26T16:07:33;31.70;49.20
814;DHT22;389;48.710;9.392;2023-06-26T16:09:59;31.70;49.30
814;DHT22;389;48.710;9.392;2023-06-26T16:12:25;31.60;49.40
814;DHT22;389;48.710;9.392;2023-06-26T16:14:50;31.60;49.00
814;DHT22;389;48.710;9.392;2023-06-26T16:17:16;31.60;49.40
814;DHT22;389;48.710;9.392;2023-06-26T16:19:41;31.50;49.20
814;DHT22;389;48.710;9.392;2023-06-26T16:22:07;31.50;49.10
814;DHT22;389;48.710;9.392;2023-06-26T16:24:34;31.50;49.20
814;DHT22;389;48.710;9.392;2023-06-26T16:26:59;31.40;49.10
814;DHT22;389;48.710;9.392;2023-06-26T16:29:25;31.20;49.30
814;DHT22;389;48.710;9.392;2023-06-26T16:31:52;31.00;49.70
814;DHT22;389;48.710;9.392;2023-06-26T16:34:19;30.70;50.00
814;DHT22;389;48.710;9.392;2023-06-26T16:36:45;30.60;50.60
814;DHT22;389;48.710;9.392;2023-06-26T16:39:12;30.30;50.60
814;DHT22;389;48.710;9.392;2023-06-26T16:41:41;30.10;50.90
814;DHT22;389;48.710;9.392;2023-06-26T16:44:07;30.00;51.40
814;DHT22;389;48.710;9.392;2023-06-26T16:46:32;29.90;51.70
814;DHT22;389;48.710;9.392;2023-06-26T16:48:58;29.80;51.80
814;DHT22;389;48.710;9.392;2023-06-26T16:51:24;29.70;51.60
814;DHT22;389;48.710;9.392;2023-06-26T16:54:09;29.60;51.80
814;DHT22;389;48.710;9.392;2023-06-26T16:56:35;29.60;52.10
814;DHT22;389;48.710;9.392;2023-06-26T16:59:00;29.60;51.70
814;DHT22;389;48.710;9.392;2023-06-26T17:01:26;29.70;50.80
814;DHT22;389;48.710;9.392;2023-06-26T17:03:52;29.70;50.70